Cadiz, KY

8:10 PM CDT on July 24, 2016 (GMT -0500)
enchanted shores | | Change Station

Elev 404 ft 36.86 °N, 87.94 °W | Updated 1 minute ago

Clear
Clear
87.8 °F
Feels Like 108 °F
N
0.0
Wind Variable Wind from East

Today
High -- | Low -- °F
--% Chance of Precip.
Yesterday
High -- | Low -- °F
Precip. -- in
Pressure 29.97 in
Visibility 10.0 miles
Clouds Clear
Heat Index 108 °F
Dew Point 82 °F
Humidity 84%
Rainfall 0.00 in
Snow Depth Not available.
5:51 AM 8:04 PM
Waning Gibbous, 71% visible
METAR KHOP 250058Z AUTO 16003KT 10SM CLR 31/24 A2998 RMK AO2 SLP147 T03120239
Pressure 29.97 in
Visibility 10.0 miles
Clouds Clear
Heat Index 108 °F
Dew Point 82 °F
Humidity 84%
Rainfall 0.00 in
Snow Depth Not available.
5:51 AM 8:04 PM
Waning Gibbous, 71% visible
METAR KHOP 250058Z AUTO 16003KT 10SM CLR 31/24 A2998 RMK AO2 SLP147 T03120239

10-Day Weather Forecast

Almanac

Astronomy

Jul. 24, 2016 Rise Set
Actual Time
Civil Twilight
Nautical Twilight
Astronomical Twilight
Moon
Length of Visible Light
Length of Day
Tomorrow will be .
, % of the Moon is Illuminated

Today's Extremes

State Highs State Lows

Community

WunderPhotos

Upload Photos

1,927,224 photos uploaded!

WunderBlog® & News

Nearby

Air Quality

  Air Quality AQ Index Pollutant
Not available.

Snow Depth

Station Depth Elevation

Earthquake Activity

City Distance Mag. Time & Date
Minimum magnitude displayed is 2.5.

Coastal Water Temperatures

Place Temperature

Stations

Nearby Weather Stations

Station Location Temp. Windchill Dew Point Humidity Wind Precip. Elev Updated Type
                   

Watches & Warnings

There are currently no watches in effect.